Time;durP1;ratioP1;P1;durP2;ratioP2;P2;SDS_P1;SDS_P2;PMS_P1;PMS_P2;Temp;Humidity;BMP_temperature;BMP_pressure;BME280_temperature;BME280_humidity;BME280_pressure;Samples;Min_cycle;Max_cycle;Signal;HPM_P1;HPM_P2
2022/01/24 00:01:40;;;;;;;6.97;4.53;;;;;;;18.18;41.92;100344.22;4976323;28;20030;-90
2022/01/24 00:04:07;;;;;;;7.78;4.93;;;;;;;18.19;41.85;100339.78;4963954;28;20054;-88
2022/01/24 00:06:57;;;;;;;9.13;5.15;;;;;;;18.20;41.91;100337.09;4957384;28;20031;-91
2022/01/24 00:38:50;;;;;;;6.82;4.57;;;;;;;18.19;41.85;100322.19;4968015;28;20187;-90
2022/01/24 00:41:18;;;;;;;7.30;4.40;;;;;;;18.19;41.99;100326.59;4959587;28;20098;-90
2022/01/24 00:46:29;;;;;;;6.78;4.43;;;;;;;18.16;41.64;100314.34;4976838;28;20102;-87
2022/01/24 00:49:17;;;;;;;6.90;4.13;;;;;;;18.15;41.60;100315.28;4960410;28;20121;-90
2022/01/24 00:57:03;;;;;;;6.53;4.32;;;;;;;18.15;41.61;100319.72;4975953;28;20146;-90
2022/01/24 00:59:29;;;;;;;7.72;4.35;;;;;;;18.10;41.85;100315.44;4976772;28;20352;-90
2022/01/24 01:01:54;;;;;;;7.13;5.05;;;;;;;18.15;41.79;100315.28;4965533;28;20090;-89
2022/01/24 01:04:24;;;;;;;6.57;4.32;;;;;;;18.18;41.69;100317.81;4959602;28;20058;-89
2022/01/24 01:06:50;;;;;;;7.45;3.97;;;;;;;18.19;41.73;100322.19;4959289;28;20117;-89
2022/01/24 01:20:16;;;;;;;6.38;4.38;;;;;;;18.18;41.74;100304.59;4976702;28;20046;-89
2022/01/24 01:22:41;;;;;;;7.68;3.95;;;;;;;18.15;41.62;100309.16;4978294;28;20520;-87
2022/01/24 01:25:07;;;;;;;6.78;4.20;;;;;;;18.14;41.52;100310.03;4959520;28;20038;-88
2022/01/24 01:27:39;;;;;;;7.68;4.53;;;;;;;18.11;41.50;100314.53;4959919;28;20050;-87
2022/01/24 01:30:07;;;;;;;7.28;4.30;;;;;;;18.13;41.61;100314.47;4958697;28;20031;-88
2022/01/24 01:56:42;;;;;;;7.32;5.35;;;;;;;17.97;40.96;100328.16;4979588;28;20117;-91
2022/01/24 01:59:08;;;;;;;7.13;4.70;;;;;;;17.98;41.09;100321.97;4962294;28;20405;-89
2022/01/24 02:01:34;;;;;;;10.25;4.50;;;;;;;18.00;40.87;100326.34;4967116;28;20026;-90
2022/01/24 02:04:02;;;;;;;7.32;4.18;;;;;;;17.96;40.68;100337.00;4979070;28;20472;-90
2022/01/24 02:06:29;;;;;;;5.75;4.13;;;;;;;17.93;40.65;100331.81;4962378;28;20030;-89
2022/01/24 02:09:04;;;;;;;6.07;4.20;;;;;;;17.93;40.72;100329.19;4962579;28;20054;-91
2022/01/24 02:11:30;;;;;;;6.28;4.60;;;;;;;17.90;40.86;100331.94;4962314;28;20065;-89
2022/01/24 02:13:59;;;;;;;6.65;4.10;;;;;;;17.95;40.93;100337.94;4961857;28;20035;-90
2022/01/24 02:16:38;;;;;;;6.50;4.30;;;;;;;17.94;40.90;100344.13;4965263;28;20019;-91
2022/01/24 02:19:20;;;;;;;6.43;4.07;;;;;;;17.91;41.03;100338.94;4962028;28;20121;-90
2022/01/24 02:24:14;;;;;;;6.18;4.18;;;;;;;17.90;41.03;100341.63;4978867;28;20037;-89
2022/01/24 02:26:40;;;;;;;6.82;4.93;;;;;;;17.90;40.73;100336.34;4978559;28;20057;-88
2022/01/24 02:29:18;;;;;;;6.57;4.00;;;;;;;17.85;41.01;100332.09;4961322;28;20368;-90
2022/01/24 02:31:47;;;;;;;5.38;3.92;;;;;;;17.87;41.07;100337.31;4961703;28;20125;-90
2022/01/24 02:34:25;;;;;;;7.45;4.13;;;;;;;17.84;40.89;100332.16;4962257;28;20119;-90
2022/01/24 02:36:52;;;;;;;5.53;3.83;;;;;;;17.85;41.02;100339.16;4961459;28;20027;-91
2022/01/24 02:50:49;;;;;;;5.85;3.97;;;;;;;17.84;40.72;100318.97;4961569;29;20046;-92
2022/01/24 02:53:09;;;;;;;6.38;4.40;;;;;;;17.89;40.68;100318.78;4960020;28;20035;-88
2022/01/24 02:55:40;;;;;;;7.10;4.20;;;;;;;17.84;40.64;100325.06;4959930;28;20038;-89
2022/01/24 02:58:06;;;;;;;7.10;4.53;;;;;;;17.80;40.81;100319.97;4960882;29;20449;-90
2022/01/24 03:00:33;;;;;;;6.45;4.50;;;;;;;17.79;40.66;100323.53;4962421;28;20023;-91
2022/01/24 03:02:58;;;;;;;6.28;4.20;;;;;;;17.80;40.75;100320.84;4961520;29;20123;-90
2022/01/24 03:05:24;;;;;;;6.15;3.55;;;;;;;17.80;40.68;100319.97;4958883;28;20118;-89
2022/01/24 03:07:49;;;;;;;6.18;4.10;;;;;;;17.80;40.84;100325.25;4958764;28;20030;-89
2022/01/24 03:10:26;;;;;;;6.25;3.85;;;;;;;17.77;40.77;100322.72;4957805;29;20031;-88
2022/01/24 03:13:36;;;;;;;;;;;;;;;17.76;40.72;100321.84;4957803;29;20070;-89
2022/01/24 03:15:41;;;;;;;5.60;4.10;;;;;;;17.71;40.84;100319.38;4952100;28;19969;-89
2022/01/24 03:18:07;;;;;;;6.03;3.80;;;;;;;17.70;41.05;100322.94;4957956;29;20457;-90
2022/01/24 03:20:33;;;;;;;5.03;3.28;;;;;;;17.71;41.08;100322.00;4963449;29;20023;-89
2022/01/24 03:23:00;;;;;;;5.60;3.70;;;;;;;17.70;41.17;100322.94;4958776;29;20182;-89
2022/01/24 03:25:27;;;;;;;6.50;4.10;;;;;;;17.70;41.04;100320.28;4959058;28;20054;-90
2022/01/24 03:27:52;;;;;;;5.38;3.65;;;;;;;17.73;41.04;100319.34;4958547;29;20399;-89
2022/01/24 03:30:18;;;;;;;6.13;3.88;;;;;;;17.71;40.97;100322.00;4957709;29;20050;-90
2022/01/24 03:32:43;;;;;;;6.20;3.95;;;;;;;17.71;41.33;100326.41;4957366;29;20037;-89
2022/01/24 03:35:09;;;;;;;7.32;3.95;;;;;;;17.80;40.85;100330.53;4959030;28;20110;-89
2022/01/24 03:37:35;;;;;;;6.72;4.20;;;;;;;17.75;41.12;100327.16;4957795;29;20046;-89
2022/01/24 03:40:05;;;;;;;5.82;3.60;;;;;;;17.73;41.12;100313.19;4960606;28;20047;-89
2022/01/24 03:42:31;;;;;;;6.03;3.88;;;;;;;17.70;41.26;100320.28;4959498;29;20035;-89
2022/01/24 03:45:00;;;;;;;6.95;4.30;;;;;;;17.74;41.05;100320.16;4956619;29;20455;-90
2022/01/24 03:50:04;;;;;;;5.77;3.67;;;;;;;17.75;41.08;100327.16;4957512;28;20070;-89
2022/01/24 03:52:30;;;;;;;5.45;3.75;;;;;;;17.71;41.03;100318.50;4956806;29;20055;-89
2022/01/24 03:54:57;;;;;;;5.68;3.78;;;;;;;17.75;40.92;100311.34;4956862;29;20066;-89
2022/01/24 03:57:23;;;;;;;5.85;3.80;;;;;;;17.71;41.13;100314.09;4956464;29;20039;-88
2022/01/24 03:59:49;;;;;;;5.60;3.88;;;;;;;17.67;41.15;100320.38;4961621;29;20035;-89
2022/01/24 04:02:17;;;;;;;5.97;3.70;;;;;;;17.71;40.98;100314.09;4957443;29;20497;-89
2022/01/24 04:04:43;;;;;;;6.47;4.13;;;;;;;17.66;41.13;100321.31;4956469;29;20342;-88
2022/01/24 04:07:08;;;;;;;6.82;3.97;;;;;;;17.70;41.32;100315.00;4956381;28;20032;-88
2022/01/24 04:09:35;;;;;;;7.57;3.95;;;;;;;17.69;41.31;100318.53;4956403;29;20034;-88
2022/01/24 04:12:02;;;;;;;7.20;4.18;;;;;;;17.73;40.99;100316.69;4956650;29;20043;-89
2022/01/24 04:22:36;;;;;;;5.35;3.50;;;;;;;17.66;41.23;100326.56;4957935;28;20473;-91
2022/01/24 04:25:04;;;;;;;5.55;3.72;;;;;;;17.63;41.52;100324.03;4958442;29;20027;-91
2022/01/24 04:27:30;;;;;;;5.65;4.00;;;;;;;17.65;41.24;100321.34;4959316;29;20520;-91
2022/01/24 04:29:56;;;;;;;5.50;3.85;;;;;;;17.63;41.32;100320.53;4957560;29;20129;-89
2022/01/24 04:32:23;;;;;;;5.95;3.85;;;;;;;17.63;41.50;100318.75;4956551;29;20027;-90
2022/01/24 04:34:49;;;;;;;5.35;3.17;;;;;;;17.60;41.46;100329.41;4956402;29;20039;-88
2022/01/24 04:37:16;;;;;;;6.10;3.80;;;;;;;17.61;41.25;100330.28;4960494;28;20409;-90
2022/01/24 04:39:43;;;;;;;6.30;3.92;;;;;;;17.56;41.43;100327.78;4956349;29;20130;-90
2022/01/24 04:42:14;;;;;;;7.60;3.60;;;;;;;17.54;41.46;100332.25;4956676;29;20019;-90
2022/01/24 04:52:47;;;;;;;6.07;3.92;;;;;;;17.61;41.32;100341.69;4956991;29;20050;-91
2022/01/24 04:55:13;;;;;;;6.28;3.58;;;;;;;17.56;41.32;100341.84;4962430;29;20412;-89
2022/01/24 04:57:39;;;;;;;5.93;3.70;;;;;;;17.58;41.51;100342.66;4955644;29;20037;-89
2022/01/24 05:00:09;;;;;;;5.60;3.70;;;;;;;17.61;41.37;100352.25;4955922;29;20027;-90
2022/01/24 05:02:35;;;;;;;5.50;3.58;;;;;;;17.61;41.35;100352.25;4957109;28;20106;-90
2022/01/24 05:05:00;;;;;;;5.47;3.85;;;;;;;17.57;41.12;100347.97;4958292;29;20057;-89
2022/01/24 05:07:27;;;;;;;5.28;3.53;;;;;;;17.62;41.50;100348.69;4957195;28;20094;-89
2022/01/24 05:25:46;;;;;;;5.25;3.63;;;;;;;17.50;41.44;100367.56;4961639;29;20372;-90
2022/01/24 05:28:11;;;;;;;5.55;3.63;;;;;;;17.57;41.44;100369.97;4960787;29;20472;-89
2022/01/24 05:30:37;;;;;;;6.93;4.38;;;;;;;17.53;41.37;100370.13;4960376;28;20027;-89
2022/01/24 05:33:02;;;;;;;5.93;4.20;;;;;;;17.56;41.15;100370.00;4960661;29;20035;-89
2022/01/24 05:35:28;;;;;;;5.15;3.70;;;;;;;17.49;41.40;100373.78;4959520;29;20031;-89
2022/01/24 05:37:53;;;;;;;6.82;4.57;;;;;;;17.51;41.25;100378.09;4959369;28;20027;-88
2022/01/24 05:40:19;;;;;;;5.93;3.72;;;;;;;17.51;41.59;100377.22;4979269;28;20034;-88
2022/01/24 05:42:45;;;;;;;6.38;3.75;;;;;;;17.51;41.34;100382.47;4962230;28;20033;-87
2022/01/24 05:45:10;;;;;;;6.15;3.55;;;;;;;17.52;41.42;100386.84;4962433;28;20023;-89
2022/01/24 05:47:36;;;;;;;6.28;4.07;;;;;;;17.48;41.47;100385.25;4962375;28;20026;-88
2022/01/24 05:50:03;;;;;;;5.60;3.42;;;;;;;17.49;41.47;100390.47;4962117;28;20033;-89
2022/01/24 05:52:29;;;;;;;8.82;4.28;;;;;;;17.53;41.01;100391.25;4962177;28;20062;-88
2022/01/24 05:54:54;;;;;;;7.35;4.10;;;;;;;17.56;41.14;100380.56;4964453;28;20022;-89
2022/01/24 05:57:20;;;;;;;6.05;3.92;;;;;;;17.53;41.01;100388.59;4970696;28;20118;-90
2022/01/24 05:59:45;;;;;;;5.75;3.63;;;;;;;17.54;41.13;100392.97;4966881;28;20034;-89
2022/01/24 06:02:11;;;;;;;5.53;3.50;;;;;;;17.56;41.21;100401.69;4967798;28;20062;-92
2022/01/24 06:04:37;;;;;;;5.93;3.83;;;;;;;17.52;41.20;100400.03;4968591;28;20027;-90
2022/01/24 06:07:02;;;;;;;5.82;3.88;;;;;;;17.49;41.56;100400.16;4967644;28;20371;-90
2022/01/24 06:09:28;;;;;;;6.88;4.00;;;;;;;17.44;41.47;100398.50;4988346;28;20046;-91
2022/01/24 06:11:54;;;;;;;6.68;4.10;;;;;;;17.44;41.17;100398.50;4970409;28;20380;-90
2022/01/24 06:14:19;;;;;;;5.70;3.70;;;;;;;17.47;41.30;100396.72;4972323;28;20037;-90
2022/01/24 06:16:45;;;;;;;6.70;3.83;;;;;;;17.49;40.97;100393.13;4968853;28;20050;-89
2022/01/24 06:19:11;;;;;;;5.85;3.85;;;;;;;17.50;41.03;100396.59;4968868;28;20031;-90
2022/01/24 06:21:36;;;;;;;6.55;3.95;;;;;;;17.52;41.00;100394.75;4964202;28;20341;-90
2022/01/24 06:24:03;;;;;;;6.78;4.30;;;;;;;17.45;41.10;100392.31;4966082;28;20098;-89
2022/01/24 06:26:30;;;;;;;7.45;4.18;;;;;;;17.43;41.07;100396.78;4964232;28;20023;-89
2022/01/24 06:28:55;;;;;;;5.50;4.05;;;;;;;17.42;41.15;100395.06;4965549;28;20094;-90
2022/01/24 06:31:21;;;;;;;7.05;4.30;;;;;;;17.42;40.95;100400.34;4962379;28;20116;-89
2022/01/24 06:33:48;;;;;;;6.57;3.85;;;;;;;17.40;40.94;100401.31;4970356;28;20014;-90
2022/01/24 06:36:17;;;;;;;6.00;4.10;;;;;;;17.39;41.06;100400.44;4968118;28;20030;-89
2022/01/24 06:38:43;;;;;;;6.75;4.00;;;;;;;17.33;41.09;100397.97;4962275;29;20075;-90
2022/01/24 06:41:09;;;;;;;7.97;4.32;;;;;;;17.40;41.06;100407.47;4958964;29;20453;-91
2022/01/24 06:43:34;;;;;;;6.00;4.20;;;;;;;17.37;41.18;100407.53;4958417;29;20051;-87
2022/01/24 06:46:01;;;;;;;6.85;4.00;;;;;;;17.39;41.23;100404.84;4958817;29;20110;-89
2022/01/24 06:48:27;;;;;;;6.82;4.10;;;;;;;17.39;41.38;100410.97;4958958;29;20035;-88
2022/01/24 06:50:53;;;;;;;6.43;4.00;;;;;;;17.42;41.19;100408.25;4958895;29;20038;-88
2022/01/24 06:53:19;;;;;;;7.22;4.13;;;;;;;17.39;41.09;100413.63;4960276;29;20050;-90
2022/01/24 06:55:44;;;;;;;6.15;3.70;;;;;;;17.32;41.27;100406.81;4956857;29;20034;-87
2022/01/24 06:58:10;;;;;;;6.00;4.03;;;;;;;17.35;41.15;100416.41;4956765;29;20439;-88
2022/01/24 07:00:35;;;;;;;5.88;4.00;;;;;;;17.32;40.96;100409.44;4957530;29;20142;-88
2022/01/24 07:03:02;;;;;;;7.75;4.20;;;;;;;17.35;41.08;100422.56;4958631;29;20082;-87
2022/01/24 07:05:28;;;;;;;6.30;4.13;;;;;;;17.35;41.05;100425.19;4957664;29;20027;-87
2022/01/24 07:07:56;;;;;;;8.30;4.47;;;;;;;17.34;41.20;100423.44;4957489;29;20086;-86
2022/01/24 07:10:27;;;;;;;11.77;5.20;;;;;;;17.39;41.16;100433.88;4957380;29;20034;-90
2022/01/24 07:12:53;;;;;;;6.57;4.43;;;;;;;17.40;41.08;100427.69;4958812;28;20031;-88
2022/01/24 07:15:22;;;;;;;6.10;4.10;;;;;;;17.33;41.10;100432.28;4957594;29;20027;-88
2022/01/24 07:20:13;;;;;;;6.28;4.00;;;;;;;17.31;41.29;100428.84;4960500;29;20028;-88
2022/01/24 07:22:39;;;;;;;7.82;4.28;;;;;;;17.37;41.31;100426.00;4957625;29;20031;-89
2022/01/24 07:25:05;;;;;;;7.45;4.05;;;;;;;17.33;41.32;100437.56;4957303;29;20115;-88
2022/01/24 07:27:31;;;;;;;5.53;3.83;;;;;;;17.34;41.29;100438.44;4958785;28;20023;-88
2022/01/24 07:29:58;;;;;;;5.63;3.75;;;;;;;17.34;41.63;100441.06;4958814;28;20034;-87
2022/01/24 07:32:23;;;;;;;7.10;3.88;;;;;;;17.39;41.63;100453.19;4958338;29;20413;-91
2022/01/24 07:34:50;;;;;;;5.85;3.60;;;;;;;17.47;41.52;100449.47;4957341;28;20037;-89
2022/01/24 07:37:16;;;;;;;6.68;4.25;;;;;;;17.45;41.53;100458.28;4957132;29;20365;-89
2022/01/24 07:39:42;;;;;;;5.72;3.90;;;;;;;17.49;41.32;100460.84;4958571;29;20051;-91
2022/01/24 07:42:16;;;;;;;5.78;3.80;;;;;;;17.48;41.46;100462.59;4956962;28;20038;-90
2022/01/24 07:44:42;;;;;;;6.55;3.92;;;;;;;17.52;41.40;100466.00;4957218;29;20031;-89
2022/01/24 07:47:08;;;;;;;6.97;4.15;;;;;;;17.51;41.69;100461.66;4957492;29;20150;-88
2022/01/24 07:49:34;;;;;;;5.93;3.50;;;;;;;17.54;41.48;100477.41;4957785;28;20126;-90
2022/01/24 07:52:01;;;;;;;7.43;3.97;;;;;;;17.54;41.46;100480.03;4958211;29;20043;-90
2022/01/24 07:54:26;;;;;;;8.10;4.20;;;;;;;17.53;41.62;100476.53;4958757;29;20504;-88
2022/01/24 07:56:52;;;;;;;6.28;4.28;;;;;;;17.55;41.25;100471.22;4959485;29;20070;-89
2022/01/24 07:59:19;;;;;;;9.90;4.38;;;;;;;17.54;41.48;100472.13;4958134;29;20102;-88
2022/01/24 08:01:46;;;;;;;6.30;4.30;;;;;;;17.55;41.36;100479.13;4956368;29;20057;-87
2022/01/24 08:04:12;;;;;;;7.18;4.50;;;;;;;17.49;41.12;100479.31;4957164;29;20389;-86
2022/01/24 08:06:38;;;;;;;8.05;4.75;;;;;;;17.47;41.36;100478.50;4968964;29;20026;-86
2022/01/24 08:09:05;;;;;;;9.43;5.25;;;;;;;17.43;41.12;100485.63;4956863;29;20038;-88
2022/01/24 08:11:32;;;;;;;9.27;5.55;;;;;;;17.43;41.27;100481.22;4956635;29;20516;-89
2022/01/24 08:13:58;;;;;;;8.55;4.63;;;;;;;17.40;41.23;100485.72;4957408;28;20023;-89
2022/01/24 08:16:24;;;;;;;7.68;4.60;;;;;;;17.36;41.17;100490.25;4955778;28;20037;-88
2022/01/24 08:18:52;;;;;;;6.53;4.75;;;;;;;17.35;41.27;100472.69;4957041;28;20104;-91
2022/01/24 08:21:19;;;;;;;8.02;4.95;;;;;;;17.36;41.26;100489.34;4962092;28;20031;-89
2022/01/24 08:23:45;;;;;;;7.35;4.70;;;;;;;17.30;41.26;100479.88;4957936;29;20070;-88
2022/01/24 08:26:11;;;;;;;7.57;4.47;;;;;;;17.30;41.29;100480.72;4967225;29;20056;-90
2022/01/24 08:28:36;;;;;;;8.63;4.82;;;;;;;17.39;41.17;100490.13;4962929;28;20039;-90
2022/01/24 08:31:02;;;;;;;5.63;4.28;;;;;;;17.31;41.33;100486.88;4941239;29;20043;-91
2022/01/24 08:33:28;;;;;;;7.25;4.45;;;;;;;17.31;41.48;100492.13;4963584;29;20035;-89
2022/01/24 08:35:54;;;;;;;6.82;4.65;;;;;;;17.30;41.41;100490.41;4957685;29;20023;-88
2022/01/24 08:38:23;;;;;;;7.57;4.72;;;;;;;17.32;41.19;100480.69;4947254;28;20048;-88
2022/01/24 08:40:54;;;;;;;8.73;4.57;;;;;;;17.30;41.06;100479.88;4971654;28;20408;-90
2022/01/24 08:43:39;;;;;;;9.23;4.82;;;;;;;17.27;41.28;100479.94;4980090;28;20035;-90
2022/01/24 08:46:05;;;;;;;7.35;5.10;;;;;;;17.25;41.46;100481.78;4989207;28;20033;-92
2022/01/24 08:48:32;;;;;;;7.03;4.85;;;;;;;17.25;41.30;100484.41;4985026;28;20026;-92
2022/01/24 08:50:59;;;;;;;8.20;4.65;;;;;;;17.23;41.54;100488.88;4959969;28;20031;-88
2022/01/24 08:53:34;;;;;;;7.97;4.57;;;;;;;17.25;41.34;100481.78;4982534;28;20404;-89
2022/01/24 08:56:05;;;;;;;7.03;4.75;;;;;;;17.26;41.54;100480.84;4969824;28;20038;-89
2022/01/24 08:58:33;;;;;;;8.27;4.13;;;;;;;17.22;41.45;100482.72;4979510;28;20039;-89
2022/01/24 09:00:59;;;;;;;6.03;4.05;;;;;;;17.23;41.47;100476.53;4986975;28;20011;-88
2022/01/24 09:03:29;;;;;;;6.70;4.22;;;;;;;17.22;41.63;100490.63;4982669;28;20041;-88
2022/01/24 09:05:59;;;;;;;6.78;4.28;;;;;;;17.22;41.54;100484.47;4980438;28;20117;-87
2022/01/24 09:08:25;;;;;;;9.68;4.72;;;;;;;17.21;41.63;100488.91;4979691;28;20073;-89
2022/01/24 09:10:52;;;;;;;8.27;5.13;;;;;;;17.20;41.62;100488.94;4980518;28;20030;-87
2022/01/24 09:13:19;;;;;;;8.02;4.70;;;;;;;17.20;41.47;100491.59;4980198;28;20022;-86
2022/01/24 09:15:45;;;;;;;7.97;4.63;;;;;;;17.18;41.62;100492.50;4982905;28;20341;-87
2022/01/24 09:18:11;;;;;;;6.78;4.22;;;;;;;17.23;41.63;100488.88;4978717;28;20045;-88
2022/01/24 09:20:40;;;;;;;7.25;4.90;;;;;;;17.21;41.55;100490.66;4985776;28;20027;-87
2022/01/24 09:23:08;;;;;;;7.72;4.18;;;;;;;17.18;41.81;100492.50;4979383;28;20130;-87
2022/01/24 09:25:39;;;;;;;7.82;4.50;;;;;;;17.22;41.64;100502.94;4984348;28;20041;-91
2022/01/24 09:28:06;;;;;;;7.65;4.20;;;;;;;17.24;41.71;100498.50;5000323;28;20136;-90
2022/01/24 09:30:35;;;;;;;6.50;4.28;;;;;;;17.15;41.64;100503.13;4997953;28;20019;-92
2022/01/24 09:33:01;;;;;;;8.07;4.30;;;;;;;17.17;41.70;100495.19;5000397;28;20034;-89
2022/01/24 09:35:28;;;;;;;7.55;4.80;;;;;;;17.21;41.34;100506.50;4979205;28;20077;-89
2022/01/24 09:37:55;;;;;;;5.57;3.53;;;;;;;17.18;41.90;100510.09;4978555;28;20368;-87
2022/01/24 09:40:23;;;;;;;6.32;4.65;;;;;;;17.20;41.67;100515.31;4981187;28;20045;-87
2022/01/24 09:42:50;;;;;;;6.40;4.35;;;;;;;17.18;41.56;100510.09;4981170;28;20049;-90
2022/01/24 09:45:17;;;;;;;8.43;4.50;;;;;;;17.20;41.58;100503.00;4981090;28;20464;-89
2022/01/24 09:47:44;;;;;;;7.47;4.30;;;;;;;17.21;41.60;100501.22;4982238;28;20082;-91
2022/01/24 09:50:12;;;;;;;6.97;4.75;;;;;;;17.23;41.60;100499.44;4981175;28;20371;-91
2022/01/24 09:52:40;;;;;;;8.07;4.35;;;;;;;17.25;41.42;100502.88;4998153;28;20081;-90
2022/01/24 09:55:13;;;;;;;6.70;4.35;;;;;;;17.22;41.57;100502.94;5001113;28;20010;-93
2022/01/24 09:58:24;;;;;;;6.60;3.92;;;;;;;17.24;41.56;100501.16;4994019;28;20033;-91
2022/01/24 10:00:50;;;;;;;6.70;4.22;;;;;;;17.26;41.59;100499.31;4979517;28;20031;-91
2022/01/24 10:03:15;;;;;;;7.90;4.70;;;;;;;17.28;41.79;100497.50;4999933;28;20021;-90
2022/01/24 10:05:42;;;;;;;7.97;4.57;;;;;;;17.30;41.61;100508.88;4995146;28;20027;-90
2022/01/24 10:08:15;;;;;;;5.90;3.88;;;;;;;17.32;41.54;100504.41;4993144;28;20034;-90
2022/01/24 10:11:03;;;;;;;5.97;4.30;;;;;;;17.29;41.63;100509.81;4982908;28;20050;-92
2022/01/24 10:16:31;;;;;;;8.90;5.60;;;;;;;17.29;41.75;100493.97;5010374;28;20092;-89
2022/01/24 10:19:11;;;;;;;8.50;4.82;;;;;;;17.27;41.62;100507.19;4992002;28;20034;-92
2022/01/24 10:22:03;;;;;;;6.22;4.30;;;;;;;17.27;41.76;100503.69;4982357;28;20026;-91
2022/01/24 10:24:40;;;;;;;7.72;4.60;;;;;;;17.26;41.77;100509.88;4982569;28;20038;-88
2022/01/24 10:27:28;;;;;;;7.07;4.60;;;;;;;17.22;41.94;100502.94;5005835;28;20444;-90
2022/01/24 10:30:07;;;;;;;7.22;4.85;;;;;;;17.26;41.96;100509.88;4988443;28;20126;-89
2022/01/24 10:32:38;;;;;;;6.28;4.25;;;;;;;17.27;41.82;100511.59;4981437;28;20038;-90
2022/01/24 10:35:43;;;;;;;6.85;4.50;;;;;;;17.24;42.07;100511.69;4983240;28;20030;-91
2022/01/24 10:41:39;;;;;;;6.43;4.60;;;;;;;17.29;42.03;100504.53;5016506;28;20061;-90
2022/01/24 10:44:10;;;;;;;5.82;4.45;;;;;;;17.26;42.06;100499.31;4994828;28;20050;-89
2022/01/24 10:46:36;;;;;;;8.10;4.70;;;;;;;17.25;41.92;100494.97;4984436;28;20026;-89
2022/01/24 10:49:15;;;;;;;8.63;5.35;;;;;;;17.26;41.99;100486.13;4981479;28;20460;-89
2022/01/24 10:51:46;;;;;;;7.75;4.53;;;;;;;17.27;41.91;100508.97;4987270;28;20474;-88
2022/01/24 10:54:17;;;;;;;7.03;4.75;;;;;;;17.22;42.05;100495.03;4981047;28;20041;-87
2022/01/24 10:56:44;;;;;;;8.10;4.78;;;;;;;17.29;41.85;100493.97;4980723;28;20030;-88
2022/01/24 10:59:10;;;;;;;8.68;5.00;;;;;;;17.30;42.05;100498.34;4985540;28;20037;-90
2022/01/24 11:01:36;;;;;;;6.50;4.43;;;;;;;17.23;41.98;100494.16;4999898;28;20026;-90
2022/01/24 11:04:11;;;;;;;6.55;4.57;;;;;;;17.22;42.13;100492.41;4994978;28;20030;-91
2022/01/24 11:09:57;;;;;;;6.85;4.40;;;;;;;17.28;42.05;100481.66;4962397;28;20050;-89
2022/01/24 11:12:41;;;;;;;7.80;4.50;;;;;;;17.31;42.02;100486.88;4991379;28;20040;-90
2022/01/24 11:15:07;;;;;;;6.50;4.32;;;;;;;17.28;42.20;100487.81;4982475;28;20034;-88
2022/01/24 11:17:34;;;;;;;7.38;4.38;;;;;;;17.32;42.00;100483.31;4983454;28;20032;-90
2022/01/24 11:20:02;;;;;;;7.45;4.25;;;;;;;17.29;42.18;100472.88;5000908;28;20022;-89
2022/01/24 11:22:31;;;;;;;9.25;4.85;;;;;;;17.33;42.03;100473.63;4981054;28;20027;-89
2022/01/24 11:25:06;;;;;;;6.65;4.25;;;;;;;17.33;42.10;100469.22;4979825;28;20096;-89
2022/01/24 11:27:34;;;;;;;7.03;4.13;;;;;;;17.32;42.20;100464.84;4979768;28;20062;-89
2022/01/24 11:30:09;;;;;;;8.13;4.55;;;;;;;17.32;42.22;100456.94;4993073;28;20026;-87
2022/01/24 11:32:47;;;;;;;6.22;3.90;;;;;;;17.36;42.09;100457.69;4996607;28;20026;-89
2022/01/24 11:35:27;;;;;;;6.68;4.78;;;;;;;17.31;42.11;100440.25;5021673;28;20419;-90
2022/01/24 11:37:53;;;;;;;7.22;4.47;;;;;;;17.34;42.16;100444.56;5004197;28;20464;-89
2022/01/24 11:40:23;;;;;;;5.78;3.75;;;;;;;17.36;42.16;100441.88;5005257;28;20041;-90
2022/01/24 11:42:50;;;;;;;7.95;4.28;;;;;;;17.35;42.08;100435.75;4999623;28;20184;-90
2022/01/24 11:45:31;;;;;;;8.05;4.13;;;;;;;17.39;42.19;100440.00;4994475;28;20061;-89
2022/01/24 11:48:14;;;;;;;6.95;4.38;;;;;;;17.39;42.07;100437.38;4989106;28;20499;-90
2022/01/24 11:50:40;;;;;;;7.25;4.60;;;;;;;17.39;42.16;100432.09;4971778;28;20029;-90
2022/01/24 11:53:22;;;;;;;7.65;4.55;;;;;;;17.34;42.15;100439.28;4979155;28;20036;-91
2022/01/24 11:55:48;;;;;;;6.68;4.55;;;;;;;17.34;42.21;100428.72;4974181;28;20026;-91
2022/01/24 11:58:32;;;;;;;6.38;4.15;;;;;;;17.37;42.55;100433.91;4969307;28;20018;-90
2022/01/24 12:01:55;;;;;;;6.75;4.30;;;;;;;17.42;42.26;100429.38;4997875;28;20026;-90
2022/01/24 12:04:53;;;;;;;6.55;4.32;;;;;;;17.43;42.37;100433.72;4982456;28;20095;-87
2022/01/24 12:07:31;;;;;;;7.00;3.75;;;;;;;17.45;42.47;100423.13;4976909;28;20092;-86
2022/01/24 12:10:22;;;;;;;6.72;3.80;;;;;;;17.43;42.44;100427.56;4978336;28;20493;-88
2022/01/24 12:12:51;;;;;;;6.13;3.80;;;;;;;17.44;42.47;100424.91;4998582;28;20472;-88
2022/01/24 12:15:42;;;;;;;5.70;3.72;;;;;;;17.44;42.38;100422.25;4994769;28;20113;-87
2022/01/24 12:18:12;;;;;;;6.30;4.18;;;;;;;17.45;42.37;100416.06;4976130;28;20077;-88
2022/01/24 12:20:38;;;;;;;6.20;4.32;;;;;;;17.47;42.53;100410.75;4979543;28;20041;-87
2022/01/24 12:23:25;;;;;;;6.20;4.32;;;;;;;17.47;42.46;100412.53;4974253;28;20031;-86
2022/01/24 12:26:10;;;;;;;7.75;4.20;;;;;;;17.48;42.64;100411.63;4984844;28;20547;-91
2022/01/24 12:28:41;;;;;;;6.95;4.50;;;;;;;17.47;42.33;100407.25;4967400;28;20022;-90
2022/01/24 12:31:16;;;;;;;6.32;4.32;;;;;;;17.49;42.55;100405.44;4959240;28;20369;-90
2022/01/24 12:34:13;;;;;;;8.03;4.43;;;;;;;17.46;42.82;100406.38;4976258;28;20049;-90
2022/01/24 12:36:51;;;;;;;7.18;4.65;;;;;;;17.49;42.43;100405.44;4973916;28;20027;-90
2022/01/24 12:39:25;;;;;;;6.40;3.80;;;;;;;17.50;42.61;100404.50;4988044;28;20078;-88
2022/01/24 12:42:01;;;;;;;5.80;3.72;;;;;;;17.51;42.65;100403.59;4978325;28;20040;-90
2022/01/24 12:47:08;;;;;;;8.20;4.68;;;;;;;17.53;42.42;100407.06;4995799;28;20057;-91
2022/01/24 12:49:35;;;;;;;8.55;4.10;;;;;;;17.55;42.50;100406.13;4959307;28;20022;-91
2022/01/24 12:52:03;;;;;;;7.68;4.53;;;;;;;17.54;42.63;100395.59;4968668;28;20100;-91
2022/01/24 12:54:31;;;;;;;6.97;4.47;;;;;;;17.54;42.77;100398.25;4979561;28;20036;-90
2022/01/24 12:57:02;;;;;;;7.30;4.65;;;;;;;17.53;42.67;100396.53;4995148;28;20040;-88
2022/01/24 12:59:28;;;;;;;7.72;4.47;;;;;;;17.55;42.75;100390.28;4980865;28;20037;-89
2022/01/24 13:01:57;;;;;;;8.85;5.10;;;;;;;17.58;42.86;100394.59;4999792;28;20026;-90
2022/01/24 13:04:35;;;;;;;8.27;4.68;;;;;;;17.59;42.87;100385.75;4978199;28;20027;-90
2022/01/24 13:07:02;;;;;;;8.40;4.32;;;;;;;17.63;42.78;100387.38;4978609;28;20080;-90
2022/01/24 13:09:27;;;;;;;7.38;4.47;;;;;;;17.63;42.74;100386.53;4978428;28;20467;-90
2022/01/24 13:12:00;;;;;;;8.10;4.28;;;;;;;17.63;42.81;100387.38;4978218;28;20026;-89
2022/01/24 13:14:51;;;;;;;7.57;4.45;;;;;;;17.64;42.87;100382.97;4978162;28;20089;-90
2022/01/24 13:23:07;;;;;;;6.95;4.30;;;;;;;17.65;42.95;100372.38;4996995;28;20072;-89
2022/01/24 13:25:36;;;;;;;6.05;4.00;;;;;;;17.67;42.93;100373.16;4959095;28;20034;-90
2022/01/24 13:28:09;;;;;;;6.63;4.30;;;;;;;17.69;42.89;100376.59;4974496;28;20117;-90
2022/01/24 13:30:47;;;;;;;7.22;4.35;;;;;;;17.65;43.32;100372.38;4965473;28;20037;-89
2022/01/24 13:33:16;;;;;;;7.00;4.60;;;;;;;17.69;42.92;100371.34;4974831;28;20038;-90
2022/01/24 13:35:51;;;;;;;8.50;4.50;;;;;;;17.71;43.08;100369.53;4970664;28;20034;-90
2022/01/24 13:38:26;;;;;;;7.07;4.25;;;;;;;17.75;43.13;100372.03;4975078;28;20090;-90
2022/01/24 13:41:14;;;;;;;6.30;4.18;;;;;;;17.73;43.29;100376.53;4995041;28;20026;-90
2022/01/24 13:43:48;;;;;;;7.10;4.10;;;;;;;17.72;43.07;100375.66;4999184;28;20038;-89
2022/01/24 13:46:25;;;;;;;8.35;4.22;;;;;;;17.75;43.24;100377.31;4978976;28;20363;-91
2022/01/24 13:48:56;;;;;;;;;;;;;;;17.75;43.08;100386.13;4986516;28;20037;-91
2022/01/24 13:51:53;;;;;;;8.25;4.00;;;;;;;17.76;43.26;100381.69;4981557;28;19945;-89
2022/01/24 13:54:26;;;;;;;7.78;4.57;;;;;;;17.75;43.06;100393.16;4953987;28;20034;-89
2022/01/24 13:57:00;;;;;;;6.90;4.05;;;;;;;17.75;43.10;100393.16;4998874;28;20032;-90
2022/01/24 13:59:25;;;;;;;6.53;3.75;;;;;;;17.77;43.37;100388.72;4972812;28;20118;-88
2022/01/24 14:02:02;;;;;;;6.70;3.97;;;;;;;17.78;43.49;100390.44;4983860;28;20054;-88